sensor_id;sensor_type;location;lat;lon;timestamp;P1;durP1;ratioP1;P2;durP2;ratioP2
59127;SDS011;44912;52.754;5.994;2024-01-16T00:01:42;7.57;;;1.45;;
59127;SDS011;44912;52.754;5.994;2024-01-16T00:04:08;6.75;;;1.58;;
59127;SDS011;44912;52.754;5.994;2024-01-16T00:06:33;13.15;;;1.48;;
59127;SDS011;44912;52.754;5.994;2024-01-16T00:09:04;7.50;;;1.20;;
59127;SDS011;44912;52.754;5.994;2024-01-16T00:11:30;6.82;;;0.98;;
59127;SDS011;44912;52.754;5.994;2024-01-16T00:13:56;10.32;;;1.48;;
59127;SDS011;44912;52.754;5.994;2024-01-16T00:16:21;6.65;;;1.05;;
59127;SDS011;44912;52.754;5.994;2024-01-16T00:18:47;5.93;;;0.95;;
59127;SDS011;44912;52.754;5.994;2024-01-16T00:21:12;6.90;;;1.05;;
59127;SDS011;44912;52.754;5.994;2024-01-16T00:23:38;8.20;;;0.98;;
59127;SDS011;44912;52.754;5.994;2024-01-16T00:26:03;8.65;;;1.15;;
59127;SDS011;44912;52.754;5.994;2024-01-16T00:28:30;4.50;;;0.90;;
59127;SDS011;44912;52.754;5.994;2024-01-16T00:30:57;7.68;;;1.75;;
59127;SDS011;44912;52.754;5.994;2024-01-16T00:33:22;7.13;;;1.20;;
59127;SDS011;44912;52.754;5.994;2024-01-16T00:35:48;7.25;;;1.35;;
59127;SDS011;44912;52.754;5.994;2024-01-16T00:38:13;8.27;;;1.05;;
59127;SDS011;44912;52.754;5.994;2024-01-16T00:40:39;9.15;;;1.30;;
59127;SDS011;44912;52.754;5.994;2024-01-16T00:43:05;5.82;;;1.20;;
59127;SDS011;44912;52.754;5.994;2024-01-16T00:45:30;11.02;;;1.15;;
59127;SDS011;44912;52.754;5.994;2024-01-16T00:47:56;9.82;;;1.48;;
59127;SDS011;44912;52.754;5.994;2024-01-16T00:50:21;7.10;;;1.17;;
59127;SDS011;44912;52.754;5.994;2024-01-16T00:52:47;7.93;;;1.77;;
59127;SDS011;44912;52.754;5.994;2024-01-16T00:55:13;6.60;;;1.10;;
59127;SDS011;44912;52.754;5.994;2024-01-16T00:57:38;10.63;;;1.70;;
59127;SDS011;44912;52.754;5.994;2024-01-16T01:00:04;7.80;;;1.20;;
59127;SDS011;44912;52.754;5.994;2024-01-16T01:02:30;6.88;;;1.20;;
59127;SDS011;44912;52.754;5.994;2024-01-16T01:04:56;4.90;;;1.10;;
59127;SDS011;44912;52.754;5.994;2024-01-16T01:07:22;11.65;;;1.27;;
59127;SDS011;44912;52.754;5.994;2024-01-16T01:09:47;10.55;;;1.75;;
59127;SDS011;44912;52.754;5.994;2024-01-16T01:12:13;5.82;;;1.17;;
59127;SDS011;44912;52.754;5.994;2024-01-16T01:14:38;8.95;;;1.27;;
59127;SDS011;44912;52.754;5.994;2024-01-16T01:17:04;8.10;;;1.55;;
59127;SDS011;44912;52.754;5.994;2024-01-16T01:19:30;7.38;;;1.10;;
59127;SDS011;44912;52.754;5.994;2024-01-16T01:21:55;8.52;;;1.23;;
59127;SDS011;44912;52.754;5.994;2024-01-16T01:24:21;8.73;;;1.48;;
59127;SDS011;44912;52.754;5.994;2024-01-16T01:26:47;6.45;;;1.08;;
59127;SDS011;44912;52.754;5.994;2024-01-16T01:29:12;12.27;;;1.52;;
59127;SDS011;44912;52.754;5.994;2024-01-16T01:31:38;10.77;;;1.30;;
59127;SDS011;44912;52.754;5.994;2024-01-16T01:34:03;6.03;;;1.15;;
59127;SDS011;44912;52.754;5.994;2024-01-16T01:36:29;10.60;;;1.92;;
59127;SDS011;44912;52.754;5.994;2024-01-16T01:38:55;13.25;;;1.52;;
59127;SDS011;44912;52.754;5.994;2024-01-16T01:41:20;12.10;;;2.00;;
59127;SDS011;44912;52.754;5.994;2024-01-16T01:43:46;9.60;;;1.23;;
59127;SDS011;44912;52.754;5.994;2024-01-16T01:48:44;9.23;;;1.60;;
59127;SDS011;44912;52.754;5.994;2024-01-16T01:51:11;8.43;;;1.08;;
59127;SDS011;44912;52.754;5.994;2024-01-16T01:53:39;8.68;;;1.35;;
59127;SDS011;44912;52.754;5.994;2024-01-16T01:56:07;10.95;;;1.40;;
59127;SDS011;44912;52.754;5.994;2024-01-16T01:58:35;7.13;;;1.00;;
59127;SDS011;44912;52.754;5.994;2024-01-16T02:01:03;10.30;;;1.67;;
59127;SDS011;44912;52.754;5.994;2024-01-16T02:03:30;11.00;;;1.33;;
59127;SDS011;44912;52.754;5.994;2024-01-16T02:06:00;7.28;;;1.10;;
59127;SDS011;44912;52.754;5.994;2024-01-16T02:08:26;10.25;;;1.60;;
59127;SDS011;44912;52.754;5.994;2024-01-16T02:10:51;8.75;;;1.17;;
59127;SDS011;44912;52.754;5.994;2024-01-16T02:13:18;11.30;;;1.30;;
59127;SDS011;44912;52.754;5.994;2024-01-16T02:15:48;7.80;;;1.20;;
59127;SDS011;44912;52.754;5.994;2024-01-16T02:18:14;6.57;;;1.15;;
59127;SDS011;44912;52.754;5.994;2024-01-16T02:20:41;9.35;;;1.40;;
59127;SDS011;44912;52.754;5.994;2024-01-16T02:23:07;9.88;;;1.45;;
59127;SDS011;44912;52.754;5.994;2024-01-16T02:25:34;8.63;;;1.45;;
59127;SDS011;44912;52.754;5.994;2024-01-16T02:28:00;9.52;;;1.30;;
59127;SDS011;44912;52.754;5.994;2024-01-16T02:30:27;6.05;;;0.90;;
59127;SDS011;44912;52.754;5.994;2024-01-16T02:32:52;8.57;;;1.08;;
59127;SDS011;44912;52.754;5.994;2024-01-16T02:35:18;8.25;;;1.50;;
59127;SDS011;44912;52.754;5.994;2024-01-16T02:37:44;8.20;;;1.30;;
59127;SDS011;44912;52.754;5.994;2024-01-16T02:40:10;7.95;;;1.00;;
59127;SDS011;44912;52.754;5.994;2024-01-16T02:42:36;6.40;;;1.10;;
59127;SDS011;44912;52.754;5.994;2024-01-16T02:45:04;6.20;;;0.90;;
59127;SDS011;44912;52.754;5.994;2024-01-16T02:47:30;7.25;;;1.60;;
59127;SDS011;44912;52.754;5.994;2024-01-16T02:49:56;5.72;;;1.08;;
59127;SDS011;44912;52.754;5.994;2024-01-16T02:52:23;8.07;;;1.23;;
59127;SDS011;44912;52.754;5.994;2024-01-16T02:54:49;5.90;;;1.27;;
59127;SDS011;44912;52.754;5.994;2024-01-16T02:57:14;6.05;;;1.05;;
59127;SDS011;44912;52.754;5.994;2024-01-16T02:59:43;7.82;;;1.15;;
59127;SDS011;44912;52.754;5.994;2024-01-16T03:02:09;5.60;;;1.00;;
59127;SDS011;44912;52.754;5.994;2024-01-16T03:04:35;5.32;;;0.98;;
59127;SDS011;44912;52.754;5.994;2024-01-16T03:07:00;6.88;;;1.30;;
59127;SDS011;44912;52.754;5.994;2024-01-16T03:09:26;8.52;;;1.02;;
59127;SDS011;44912;52.754;5.994;2024-01-16T03:11:51;6.57;;;0.85;;
59127;SDS011;44912;52.754;5.994;2024-01-16T03:14:17;5.18;;;1.02;;
59127;SDS011;44912;52.754;5.994;2024-01-16T03:16:43;7.75;;;0.88;;
59127;SDS011;44912;52.754;5.994;2024-01-16T03:19:09;6.72;;;1.27;;
59127;SDS011;44912;52.754;5.994;2024-01-16T03:21:37;4.43;;;1.05;;
59127;SDS011;44912;52.754;5.994;2024-01-16T03:24:02;7.03;;;1.50;;
59127;SDS011;44912;52.754;5.994;2024-01-16T03:26:29;7.53;;;1.05;;
59127;SDS011;44912;52.754;5.994;2024-01-16T03:28:55;8.02;;;1.13;;
59127;SDS011;44912;52.754;5.994;2024-01-16T03:31:20;9.38;;;1.20;;
59127;SDS011;44912;52.754;5.994;2024-01-16T03:33:47;5.82;;;1.15;;
59127;SDS011;44912;52.754;5.994;2024-01-16T03:36:12;6.47;;;1.27;;
59127;SDS011;44912;52.754;5.994;2024-01-16T03:38:39;9.13;;;1.52;;
59127;SDS011;44912;52.754;5.994;2024-01-16T03:41:05;9.88;;;2.08;;
59127;SDS011;44912;52.754;5.994;2024-01-16T03:43:35;4.57;;;1.13;;
59127;SDS011;44912;52.754;5.994;2024-01-16T03:46:00;6.07;;;1.00;;
59127;SDS011;44912;52.754;5.994;2024-01-16T03:48:26;5.10;;;1.00;;
59127;SDS011;44912;52.754;5.994;2024-01-16T03:50:52;6.15;;;1.08;;
59127;SDS011;44912;52.754;5.994;2024-01-16T03:53:19;4.95;;;1.00;;
59127;SDS011;44912;52.754;5.994;2024-01-16T03:55:46;7.85;;;1.00;;
59127;SDS011;44912;52.754;5.994;2024-01-16T03:58:12;6.55;;;1.05;;
59127;SDS011;44912;52.754;5.994;2024-01-16T04:00:38;4.93;;;0.77;;
59127;SDS011;44912;52.754;5.994;2024-01-16T04:03:03;10.63;;;1.45;;
59127;SDS011;44912;52.754;5.994;2024-01-16T04:05:29;6.72;;;1.23;;
59127;SDS011;44912;52.754;5.994;2024-01-16T04:07:56;5.18;;;0.90;;
59127;SDS011;44912;52.754;5.994;2024-01-16T04:10:22;8.07;;;1.40;;
59127;SDS011;44912;52.754;5.994;2024-01-16T04:12:48;9.35;;;1.17;;
59127;SDS011;44912;52.754;5.994;2024-01-16T04:15:14;5.93;;;1.10;;
59127;SDS011;44912;52.754;5.994;2024-01-16T04:17:39;4.95;;;0.90;;
59127;SDS011;44912;52.754;5.994;2024-01-16T04:20:05;7.70;;;1.08;;
59127;SDS011;44912;52.754;5.994;2024-01-16T04:22:34;8.35;;;1.00;;
59127;SDS011;44912;52.754;5.994;2024-01-16T04:25:00;7.60;;;1.02;;
59127;SDS011;44912;52.754;5.994;2024-01-16T04:27:26;5.45;;;1.10;;
59127;SDS011;44912;52.754;5.994;2024-01-16T04:29:52;6.28;;;1.00;;
59127;SDS011;44912;52.754;5.994;2024-01-16T04:32:18;7.35;;;1.60;;
59127;SDS011;44912;52.754;5.994;2024-01-16T04:34:44;5.97;;;1.02;;
59127;SDS011;44912;52.754;5.994;2024-01-16T04:37:09;6.20;;;0.88;;
59127;SDS011;44912;52.754;5.994;2024-01-16T04:39:35;9.75;;;1.42;;
59127;SDS011;44912;52.754;5.994;2024-01-16T04:42:00;7.30;;;1.20;;
59127;SDS011;44912;52.754;5.994;2024-01-16T04:44:26;7.35;;;1.00;;
59127;SDS011;44912;52.754;5.994;2024-01-16T04:46:52;6.35;;;0.90;;
59127;SDS011;44912;52.754;5.994;2024-01-16T04:49:17;5.25;;;1.10;;
59127;SDS011;44912;52.754;5.994;2024-01-16T04:51:43;5.72;;;1.13;;
59127;SDS011;44912;52.754;5.994;2024-01-16T04:54:09;7.60;;;1.35;;
59127;SDS011;44912;52.754;5.994;2024-01-16T04:56:36;9.25;;;1.05;;
59127;SDS011;44912;52.754;5.994;2024-01-16T04:59:02;8.95;;;1.88;;
59127;SDS011;44912;52.754;5.994;2024-01-16T05:01:27;7.68;;;0.90;;
59127;SDS011;44912;52.754;5.994;2024-01-16T05:03:53;7.05;;;1.00;;
59127;SDS011;44912;52.754;5.994;2024-01-16T05:06:19;8.10;;;0.95;;
59127;SDS011;44912;52.754;5.994;2024-01-16T05:08:45;5.68;;;1.00;;
59127;SDS011;44912;52.754;5.994;2024-01-16T05:11:11;10.70;;;1.20;;
59127;SDS011;44912;52.754;5.994;2024-01-16T05:13:36;8.57;;;1.33;;
59127;SDS011;44912;52.754;5.994;2024-01-16T05:16:02;7.07;;;1.10;;
59127;SDS011;44912;52.754;5.994;2024-01-16T05:18:28;6.28;;;1.30;;
59127;SDS011;44912;52.754;5.994;2024-01-16T05:20:53;4.97;;;0.88;;
59127;SDS011;44912;52.754;5.994;2024-01-16T05:23:21;7.57;;;1.02;;
59127;SDS011;44912;52.754;5.994;2024-01-16T05:25:46;5.63;;;1.20;;
59127;SDS011;44912;52.754;5.994;2024-01-16T05:28:12;7.57;;;1.10;;
59127;SDS011;44912;52.754;5.994;2024-01-16T05:30:38;7.15;;;1.45;;
59127;SDS011;44912;52.754;5.994;2024-01-16T05:33:03;8.77;;;1.25;;
59127;SDS011;44912;52.754;5.994;2024-01-16T05:35:29;6.65;;;1.17;;
59127;SDS011;44912;52.754;5.994;2024-01-16T05:37:55;6.70;;;1.15;;
59127;SDS011;44912;52.754;5.994;2024-01-16T05:40:21;8.93;;;1.17;;
59127;SDS011;44912;52.754;5.994;2024-01-16T05:42:50;7.55;;;1.30;;
59127;SDS011;44912;52.754;5.994;2024-01-16T05:45:16;6.28;;;1.10;;
59127;SDS011;44912;52.754;5.994;2024-01-16T05:47:42;9.27;;;1.13;;
59127;SDS011;44912;52.754;5.994;2024-01-16T05:50:08;12.07;;;1.40;;
59127;SDS011;44912;52.754;5.994;2024-01-16T05:52:34;7.43;;;1.00;;
59127;SDS011;44912;52.754;5.994;2024-01-16T05:54:59;6.13;;;1.23;;
59127;SDS011;44912;52.754;5.994;2024-01-16T05:57:26;9.48;;;1.50;;
59127;SDS011;44912;52.754;5.994;2024-01-16T05:59:51;4.60;;;0.85;;
59127;SDS011;44912;52.754;5.994;2024-01-16T06:02:17;7.88;;;1.23;;
59127;SDS011;44912;52.754;5.994;2024-01-16T06:04:43;6.05;;;0.93;;
59127;SDS011;44912;52.754;5.994;2024-01-16T06:07:08;7.85;;;1.20;;
59127;SDS011;44912;52.754;5.994;2024-01-16T06:09:40;5.32;;;1.05;;
59127;SDS011;44912;52.754;5.994;2024-01-16T06:12:06;8.52;;;1.33;;
59127;SDS011;44912;52.754;5.994;2024-01-16T06:14:33;4.70;;;1.35;;
59127;SDS011;44912;52.754;5.994;2024-01-16T06:16:59;9.13;;;1.40;;
59127;SDS011;44912;52.754;5.994;2024-01-16T06:19:24;8.20;;;1.67;;
59127;SDS011;44912;52.754;5.994;2024-01-16T06:21:50;7.93;;;1.40;;
59127;SDS011;44912;52.754;5.994;2024-01-16T06:24:16;7.65;;;1.52;;
59127;SDS011;44912;52.754;5.994;2024-01-16T06:26:41;5.72;;;1.73;;
59127;SDS011;44912;52.754;5.994;2024-01-16T06:29:07;8.27;;;2.00;;
59127;SDS011;44912;52.754;5.994;2024-01-16T06:31:33;6.07;;;2.00;;
59127;SDS011;44912;52.754;5.994;2024-01-16T06:33:59;5.57;;;2.30;;
59127;SDS011;44912;52.754;5.994;2024-01-16T06:36:25;9.90;;;2.97;;
59127;SDS011;44912;52.754;5.994;2024-01-16T06:38:50;11.30;;;3.05;;
59127;SDS011;44912;52.754;5.994;2024-01-16T06:41:16;8.50;;;3.10;;
59127;SDS011;44912;52.754;5.994;2024-01-16T06:43:41;11.20;;;3.00;;
59127;SDS011;44912;52.754;5.994;2024-01-16T06:46:07;8.50;;;3.28;;
59127;SDS011;44912;52.754;5.994;2024-01-16T06:48:36;10.10;;;3.58;;
59127;SDS011;44912;52.754;5.994;2024-01-16T06:51:03;13.98;;;4.05;;
59127;SDS011;44912;52.754;5.994;2024-01-16T06:53:29;12.00;;;3.50;;
59127;SDS011;44912;52.754;5.994;2024-01-16T06:55:55;10.38;;;3.63;;
59127;SDS011;44912;52.754;5.994;2024-01-16T06:58:21;14.45;;;3.92;;
59127;SDS011;44912;52.754;5.994;2024-01-16T07:00:47;10.77;;;3.92;;
59127;SDS011;44912;52.754;5.994;2024-01-16T07:03:12;8.55;;;3.70;;
59127;SDS011;44912;52.754;5.994;2024-01-16T07:05:38;11.07;;;3.47;;
59127;SDS011;44912;52.754;5.994;2024-01-16T07:08:06;10.57;;;3.70;;
59127;SDS011;44912;52.754;5.994;2024-01-16T07:10:32;8.35;;;3.75;;
59127;SDS011;44912;52.754;5.994;2024-01-16T07:12:59;9.57;;;3.95;;
59127;SDS011;44912;52.754;5.994;2024-01-16T07:15:24;9.35;;;3.22;;
59127;SDS011;44912;52.754;5.994;2024-01-16T07:17:50;9.27;;;3.50;;
59127;SDS011;44912;52.754;5.994;2024-01-16T07:20:16;10.55;;;3.80;;
59127;SDS011;44912;52.754;5.994;2024-01-16T07:22:41;12.30;;;3.53;;
59127;SDS011;44912;52.754;5.994;2024-01-16T07:25:07;10.38;;;4.55;;
59127;SDS011;44912;52.754;5.994;2024-01-16T07:27:33;9.60;;;3.25;;
59127;SDS011;44912;52.754;5.994;2024-01-16T07:29:59;8.68;;;3.60;;
59127;SDS011;44912;52.754;5.994;2024-01-16T07:32:25;11.10;;;3.88;;
59127;SDS011;44912;52.754;5.994;2024-01-16T07:34:50;10.52;;;4.03;;
59127;SDS011;44912;52.754;5.994;2024-01-16T07:37:17;11.70;;;4.47;;
59127;SDS011;44912;52.754;5.994;2024-01-16T07:39:43;14.15;;;4.95;;
59127;SDS011;44912;52.754;5.994;2024-01-16T07:42:09;12.70;;;4.63;;
59127;SDS011;44912;52.754;5.994;2024-01-16T07:44:35;10.23;;;4.50;;
59127;SDS011;44912;52.754;5.994;2024-01-16T07:47:01;12.18;;;5.07;;
59127;SDS011;44912;52.754;5.994;2024-01-16T07:49:27;11.65;;;4.63;;
59127;SDS011;44912;52.754;5.994;2024-01-16T07:51:53;10.30;;;4.38;;
59127;SDS011;44912;52.754;5.994;2024-01-16T07:54:18;10.52;;;4.55;;
59127;SDS011;44912;52.754;5.994;2024-01-16T07:56:44;9.73;;;4.55;;
59127;SDS011;44912;52.754;5.994;2024-01-16T07:59:10;12.65;;;4.68;;
59127;SDS011;44912;52.754;5.994;2024-01-16T08:01:35;11.30;;;5.15;;
59127;SDS011;44912;52.754;5.994;2024-01-16T08:04:02;11.57;;;4.78;;
59127;SDS011;44912;52.754;5.994;2024-01-16T08:06:28;9.57;;;4.30;;
59127;SDS011;44912;52.754;5.994;2024-01-16T08:08:54;13.55;;;4.82;;
59127;SDS011;44912;52.754;5.994;2024-01-16T08:11:20;17.95;;;4.68;;
59127;SDS011;44912;52.754;5.994;2024-01-16T08:13:46;10.38;;;4.72;;
59127;SDS011;44912;52.754;5.994;2024-01-16T08:16:11;15.32;;;4.72;;
59127;SDS011;44912;52.754;5.994;2024-01-16T08:18:37;9.73;;;4.18;;
59127;SDS011;44912;52.754;5.994;2024-01-16T08:21:03;11.80;;;4.18;;
59127;SDS011;44912;52.754;5.994;2024-01-16T08:23:28;7.40;;;3.30;;
59127;SDS011;44912;52.754;5.994;2024-01-16T08:25:54;10.93;;;4.82;;
59127;SDS011;44912;52.754;5.994;2024-01-16T08:28:20;14.68;;;7.38;;
59127;SDS011;44912;52.754;5.994;2024-01-16T08:30:46;13.90;;;6.50;;
59127;SDS011;44912;52.754;5.994;2024-01-16T08:33:12;14.30;;;6.97;;
59127;SDS011;44912;52.754;5.994;2024-01-16T08:35:38;16.98;;;7.45;;
59127;SDS011;44912;52.754;5.994;2024-01-16T08:38:03;13.77;;;8.30;;
59127;SDS011;44912;52.754;5.994;2024-01-16T08:40:29;13.43;;;6.95;;
59127;SDS011;44912;52.754;5.994;2024-01-16T08:42:55;16.08;;;6.60;;
59127;SDS011;44912;52.754;5.994;2024-01-16T08:45:21;17.38;;;7.20;;
59127;SDS011;44912;52.754;5.994;2024-01-16T08:47:47;13.93;;;7.05;;
59127;SDS011;44912;52.754;5.994;2024-01-16T08:50:13;14.48;;;6.55;;
59127;SDS011;44912;52.754;5.994;2024-01-16T08:52:39;15.32;;;6.53;;
59127;SDS011;44912;52.754;5.994;2024-01-16T08:55:05;12.85;;;6.43;;
59127;SDS011;44912;52.754;5.994;2024-01-16T08:57:30;14.50;;;6.68;;
59127;SDS011;44912;52.754;5.994;2024-01-16T08:59:56;12.55;;;5.70;;
59127;SDS011;44912;52.754;5.994;2024-01-16T09:02:22;13.30;;;6.38;;
59127;SDS011;44912;52.754;5.994;2024-01-16T09:04:49;11.45;;;5.38;;
59127;SDS011;44912;52.754;5.994;2024-01-16T09:07:15;12.52;;;5.78;;
59127;SDS011;44912;52.754;5.994;2024-01-16T09:09:42;12.05;;;5.32;;
59127;SDS011;44912;52.754;5.994;2024-01-16T09:12:08;14.45;;;5.70;;
59127;SDS011;44912;52.754;5.994;2024-01-16T09:14:34;12.15;;;5.63;;
59127;SDS011;44912;52.754;5.994;2024-01-16T09:17:00;10.50;;;5.10;;
59127;SDS011;44912;52.754;5.994;2024-01-16T09:19:25;10.80;;;5.90;;
59127;SDS011;44912;52.754;5.994;2024-01-16T09:21:51;13.70;;;5.47;;
59127;SDS011;44912;52.754;5.994;2024-01-16T09:24:17;10.48;;;4.60;;
59127;SDS011;44912;52.754;5.994;2024-01-16T09:26:43;12.65;;;5.07;;
59127;SDS011;44912;52.754;5.994;2024-01-16T09:29:09;8.70;;;3.40;;
59127;SDS011;44912;52.754;5.994;2024-01-16T09:31:35;6.78;;;2.95;;
59127;SDS011;44912;52.754;5.994;2024-01-16T09:34:02;7.82;;;2.00;;
59127;SDS011;44912;52.754;5.994;2024-01-16T09:36:29;7.18;;;2.22;;
59127;SDS011;44912;52.754;5.994;2024-01-16T09:38:54;6.03;;;1.92;;
59127;SDS011;44912;52.754;5.994;2024-01-16T09:41:20;5.03;;;1.83;;
59127;SDS011;44912;52.754;5.994;2024-01-16T09:43:46;6.60;;;2.00;;
59127;SDS011;44912;52.754;5.994;2024-01-16T09:46:12;4.10;;;1.83;;
59127;SDS011;44912;52.754;5.994;2024-01-16T09:48:41;6.38;;;1.92;;
59127;SDS011;44912;52.754;5.994;2024-01-16T09:51:10;7.50;;;1.90;;
59127;SDS011;44912;52.754;5.994;2024-01-16T09:53:39;7.15;;;1.90;;
59127;SDS011;44912;52.754;5.994;2024-01-16T09:56:06;5.65;;;1.40;;
59127;SDS011;44912;52.754;5.994;2024-01-16T09:58:47;7.28;;;1.60;;
59127;SDS011;44912;52.754;5.994;2024-01-16T10:01:14;11.45;;;1.95;;
59127;SDS011;44912;52.754;5.994;2024-01-16T10:03:41;5.57;;;1.50;;
59127;SDS011;44912;52.754;5.994;2024-01-16T10:06:09;6.72;;;1.80;;
59127;SDS011;44912;52.754;5.994;2024-01-16T10:08:36;9.48;;;2.10;;
59127;SDS011;44912;52.754;5.994;2024-01-16T10:11:02;9.40;;;1.70;;
59127;SDS011;44912;52.754;5.994;2024-01-16T10:13:28;8.35;;;1.48;;
59127;SDS011;44912;52.754;5.994;2024-01-16T10:15:54;6.35;;;1.50;;
59127;SDS011;44912;52.754;5.994;2024-01-16T10:18:23;7.22;;;1.40;;
59127;SDS011;44912;52.754;5.994;2024-01-16T10:20:50;13.98;;;1.95;;
59127;SDS011;44912;52.754;5.994;2024-01-16T10:23:24;7.78;;;1.42;;
59127;SDS011;44912;52.754;5.994;2024-01-16T10:28:42;4.55;;;1.42;;
59127;SDS011;44912;52.754;5.994;2024-01-16T10:31:09;8.23;;;1.27;;
59127;SDS011;44912;52.754;5.994;2024-01-16T10:33:36;6.53;;;1.45;;
59127;SDS011;44912;52.754;5.994;2024-01-16T10:36:07;7.72;;;1.30;;
59127;SDS011;44912;52.754;5.994;2024-01-16T10:38:44;9.57;;;1.40;;
59127;SDS011;44912;52.754;5.994;2024-01-16T10:41:11;5.93;;;1.60;;
59127;SDS011;44912;52.754;5.994;2024-01-16T10:43:43;9.05;;;1.45;;
59127;SDS011;44912;52.754;5.994;2024-01-16T10:46:15;9.88;;;1.50;;
59127;SDS011;44912;52.754;5.994;2024-01-16T10:48:43;6.43;;;1.38;;
59127;SDS011;44912;52.754;5.994;2024-01-16T10:51:23;6.45;;;1.50;;
59127;SDS011;44912;52.754;5.994;2024-01-16T10:53:51;8.15;;;1.65;;
59127;SDS011;44912;52.754;5.994;2024-01-16T10:56:23;7.88;;;1.48;;
59127;SDS011;44912;52.754;5.994;2024-01-16T10:58:53;7.15;;;1.67;;
59127;SDS011;44912;52.754;5.994;2024-01-16T11:01:43;7.68;;;1.52;;
59127;SDS011;44912;52.754;5.994;2024-01-16T11:04:13;6.38;;;1.30;;
59127;SDS011;44912;52.754;5.994;2024-01-16T11:06:40;7.65;;;1.80;;
59127;SDS011;44912;52.754;5.994;2024-01-16T11:09:07;8.65;;;2.42;;
59127;SDS011;44912;52.754;5.994;2024-01-16T11:11:34;7.88;;;2.50;;
59127;SDS011;44912;52.754;5.994;2024-01-16T11:14:00;4.75;;;2.17;;
59127;SDS011;44912;52.754;5.994;2024-01-16T11:16:28;13.00;;;2.30;;
59127;SDS011;44912;52.754;5.994;2024-01-16T11:18:56;7.63;;;1.83;;
59127;SDS011;44912;52.754;5.994;2024-01-16T11:21:22;8.38;;;2.03;;
59127;SDS011;44912;52.754;5.994;2024-01-16T11:23:49;4.28;;;1.92;;
59127;SDS011;44912;52.754;5.994;2024-01-16T11:28:56;9.40;;;3.00;;
59127;SDS011;44912;52.754;5.994;2024-01-16T11:31:30;7.97;;;2.95;;
59127;SDS011;44912;52.754;5.994;2024-01-16T11:39:08;15.80;;;4.85;;
59127;SDS011;44912;52.754;5.994;2024-01-16T11:47:03;20.65;;;7.63;;
59127;SDS011;44912;52.754;5.994;2024-01-16T11:49:29;11.63;;;5.55;;
59127;SDS011;44912;52.754;5.994;2024-01-16T11:51:57;12.88;;;6.20;;
59127;SDS011;44912;52.754;5.994;2024-01-16T11:54:22;15.00;;;6.22;;
59127;SDS011;44912;52.754;5.994;2024-01-16T11:59:58;14.15;;;6.63;;
59127;SDS011;44912;52.754;5.994;2024-01-16T12:02:36;13.40;;;6.22;;
59127;SDS011;44912;52.754;5.994;2024-01-16T12:05:11;11.18;;;5.63;;
59127;SDS011;44912;52.754;5.994;2024-01-16T12:07:45;12.90;;;6.18;;
59127;SDS011;44912;52.754;5.994;2024-01-16T12:10:15;14.20;;;6.10;;
59127;SDS011;44912;52.754;5.994;2024-01-16T12:12:42;13.18;;;6.18;;
59127;SDS011;44912;52.754;5.994;2024-01-16T12:15:12;12.65;;;6.07;;
59127;SDS011;44912;52.754;5.994;2024-01-16T12:17:57;15.30;;;6.82;;
59127;SDS011;44912;52.754;5.994;2024-01-16T12:20:29;13.68;;;5.55;;
59127;SDS011;44912;52.754;5.994;2024-01-16T12:23:00;10.95;;;5.10;;
59127;SDS011;44912;52.754;5.994;2024-01-16T12:25:27;10.82;;;4.78;;
59127;SDS011;44912;52.754;5.994;2024-01-16T12:28:04;9.13;;;4.90;;
59127;SDS011;44912;52.754;5.994;2024-01-16T12:30:34;9.57;;;4.28;;
59127;SDS011;44912;52.754;5.994;2024-01-16T12:35:37;11.02;;;4.00;;
59127;SDS011;44912;52.754;5.994;2024-01-16T12:38:08;9.45;;;3.60;;
59127;SDS011;44912;52.754;5.994;2024-01-16T12:40:34;11.15;;;3.83;;
59127;SDS011;44912;52.754;5.994;2024-01-16T12:43:02;10.50;;;3.90;;
59127;SDS011;44912;52.754;5.994;2024-01-16T12:45:28;10.23;;;3.80;;
59127;SDS011;44912;52.754;5.994;2024-01-16T12:47:54;10.70;;;3.67;;
59127;SDS011;44912;52.754;5.994;2024-01-16T12:50:23;6.90;;;3.15;;
59127;SDS011;44912;52.754;5.994;2024-01-16T12:53:04;9.40;;;3.33;;
59127;SDS011;44912;52.754;5.994;2024-01-16T12:55:31;11.02;;;3.45;;
59127;SDS011;44912;52.754;5.994;2024-01-16T12:58:19;8.20;;;3.25;;
59127;SDS011;44912;52.754;5.994;2024-01-16T13:00:47;10.38;;;3.05;;
59127;SDS011;44912;52.754;5.994;2024-01-16T13:03:19;10.57;;;2.80;;
59127;SDS011;44912;52.754;5.994;2024-01-16T13:05:56;10.45;;;3.35;;
59127;SDS011;44912;52.754;5.994;2024-01-16T13:08:23;6.90;;;2.28;;
59127;SDS011;44912;52.754;5.994;2024-01-16T13:11:02;7.72;;;2.55;;
59127;SDS011;44912;52.754;5.994;2024-01-16T13:13:34;11.02;;;2.63;;
59127;SDS011;44912;52.754;5.994;2024-01-16T13:16:01;7.53;;;2.58;;
59127;SDS011;44912;52.754;5.994;2024-01-16T13:18:31;11.30;;;2.50;;
59127;SDS011;44912;52.754;5.994;2024-01-16T13:20:57;7.65;;;2.47;;
59127;SDS011;44912;52.754;5.994;2024-01-16T13:23:24;8.15;;;2.83;;
59127;SDS011;44912;52.754;5.994;2024-01-16T13:25:51;8.50;;;2.70;;
59127;SDS011;44912;52.754;5.994;2024-01-16T13:28:17;6.63;;;2.47;;
59127;SDS011;44912;52.754;5.994;2024-01-16T13:30:45;7.97;;;2.40;;
59127;SDS011;44912;52.754;5.994;2024-01-16T13:33:13;5.68;;;2.35;;
59127;SDS011;44912;52.754;5.994;2024-01-16T13:35:41;7.88;;;2.40;;
59127;SDS011;44912;52.754;5.994;2024-01-16T13:38:08;8.50;;;2.30;;
59127;SDS011;44912;52.754;5.994;2024-01-16T13:40:37;7.30;;;2.30;;
59127;SDS011;44912;52.754;5.994;2024-01-16T13:43:03;4.40;;;1.83;;
59127;SDS011;44912;52.754;5.994;2024-01-16T13:45:30;8.90;;;2.55;;
59127;SDS011;44912;52.754;5.994;2024-01-16T13:47:56;8.75;;;2.30;;
59127;SDS011;44912;52.754;5.994;2024-01-16T13:50:22;10.07;;;2.25;;
59127;SDS011;44912;52.754;5.994;2024-01-16T13:52:48;5.32;;;1.90;;
59127;SDS011;44912;52.754;5.994;2024-01-16T13:55:15;6.07;;;2.03;;
59127;SDS011;44912;52.754;5.994;2024-01-16T13:57:41;6.30;;;1.83;;
59127;SDS011;44912;52.754;5.994;2024-01-16T14:00:08;6.68;;;2.42;;
59127;SDS011;44912;52.754;5.994;2024-01-16T14:02:42;11.05;;;2.25;;
59127;SDS011;44912;52.754;5.994;2024-01-16T14:05:09;6.43;;;1.90;;
59127;SDS011;44912;52.754;5.994;2024-01-16T14:07:43;6.40;;;2.10;;
59127;SDS011;44912;52.754;5.994;2024-01-16T14:10:15;7.75;;;2.10;;
59127;SDS011;44912;52.754;5.994;2024-01-16T14:12:42;9.57;;;2.72;;
59127;SDS011;44912;52.754;5.994;2024-01-16T14:15:12;7.28;;;2.05;;
59127;SDS011;44912;52.754;5.994;2024-01-16T14:17:45;11.65;;;3.20;;
59127;SDS011;44912;52.754;5.994;2024-01-16T14:20:12;9.98;;;2.38;;
59127;SDS011;44912;52.754;5.994;2024-01-16T14:22:39;7.78;;;2.03;;
59127;SDS011;44912;52.754;5.994;2024-01-16T14:25:09;5.38;;;1.73;;
59127;SDS011;44912;52.754;5.994;2024-01-16T14:27:43;10.10;;;2.10;;
59127;SDS011;44912;52.754;5.994;2024-01-16T14:30:12;6.65;;;1.67;;
59127;SDS011;44912;52.754;5.994;2024-01-16T14:32:42;6.05;;;1.75;;
59127;SDS011;44912;52.754;5.994;2024-01-16T14:35:09;4.68;;;1.50;;
59127;SDS011;44912;52.754;5.994;2024-01-16T14:37:38;8.18;;;1.60;;
59127;SDS011;44912;52.754;5.994;2024-01-16T14:40:04;7.25;;;1.60;;
59127;SDS011;44912;52.754;5.994;2024-01-16T14:42:50;6.40;;;1.98;;
59127;SDS011;44912;52.754;5.994;2024-01-16T14:45:18;6.85;;;1.60;;
59127;SDS011;44912;52.754;5.994;2024-01-16T14:47:48;6.82;;;1.63;;
59127;SDS011;44912;52.754;5.994;2024-01-16T14:50:15;9.20;;;2.00;;
59127;SDS011;44912;52.754;5.994;2024-01-16T14:52:43;8.55;;;1.83;;
59127;SDS011;44912;52.754;5.994;2024-01-16T14:55:09;9.93;;;1.77;;
59127;SDS011;44912;52.754;5.994;2024-01-16T14:57:37;8.73;;;2.00;;
59127;SDS011;44912;52.754;5.994;2024-01-16T15:02:56;13.98;;;2.58;;
59127;SDS011;44912;52.754;5.994;2024-01-16T15:05:24;6.13;;;1.67;;
59127;SDS011;44912;52.754;5.994;2024-01-16T15:07:50;7.07;;;1.73;;
59127;SDS011;44912;52.754;5.994;2024-01-16T15:10:19;4.72;;;1.50;;